createdAt,value
2018-02-12T00:00:42.552Z,3.58
2018-02-12T00:03:09.442Z,4.27
2018-02-12T00:05:36.363Z,3.40
2018-02-12T00:08:03.284Z,3.60
2018-02-12T00:10:30.199Z,3.10
2018-02-12T00:12:57.130Z,3.85
2018-02-12T00:15:24.408Z,2.87
2018-02-12T00:17:51.343Z,3.00
2018-02-12T00:20:18.250Z,4.30
2018-02-12T00:22:45.952Z,3.25
2018-02-12T00:25:12.859Z,5.10
2018-02-12T00:27:40.599Z,3.20
2018-02-12T00:30:07.481Z,2.67
2018-02-12T00:32:34.440Z,3.85
2018-02-12T00:35:01.390Z,2.97
2018-02-12T00:37:28.341Z,3.40
2018-02-12T00:39:55.263Z,3.15
2018-02-12T00:42:22.195Z,3.33
2018-02-12T00:44:49.118Z,3.92
2018-02-12T00:47:16.804Z,3.28
2018-02-12T00:49:44.663Z,6.10
2018-02-12T00:52:12.350Z,2.65
2018-02-12T00:54:39.251Z,2.58
2018-02-12T00:57:06.171Z,4.40
2018-02-12T00:59:33.080Z,2.95
2018-02-12T01:02:00.381Z,4.43
2018-02-12T01:04:28.138Z,3.10
2018-02-12T01:06:55.088Z,3.95
2018-02-12T01:09:22.005Z,3.42
2018-02-12T01:11:48.952Z,2.80
2018-02-12T01:14:15.855Z,3.42
2018-02-12T01:16:42.799Z,4.40
2018-02-12T01:19:09.715Z,3.47
2018-02-12T01:21:36.636Z,3.53
2018-02-12T01:24:04.315Z,3.58
2018-02-12T01:26:31.272Z,2.08
2018-02-12T01:31:32.472Z,3.67
2018-02-12T01:34:02.427Z,3.67
2018-02-12T01:36:30.248Z,2.97
2018-02-12T01:38:57.201Z,3.40
2018-02-12T01:41:26.771Z,3.05
2018-02-12T01:43:59.357Z,3.50
2018-02-12T01:46:28.750Z,5.95
2018-02-12T01:48:58.404Z,3.30
2018-02-12T01:51:26.925Z,3.72
2018-02-12T01:53:53.831Z,3.65
2018-02-12T01:56:20.753Z,4.18
2018-02-12T01:58:48.428Z,3.08
2018-02-12T02:01:15.346Z,3.50
2018-02-12T02:03:43.028Z,3.17
2018-02-12T02:06:09.950Z,3.60
2018-02-12T02:08:36.870Z,4.55
2018-02-12T02:11:03.796Z,3.17
2018-02-12T02:13:30.722Z,4.03
2018-02-12T02:15:57.663Z,3.58
2018-02-12T02:18:24.589Z,3.78
2018-02-12T02:20:51.495Z,4.55
2018-02-12T02:23:18.460Z,4.60
2018-02-12T02:25:46.143Z,3.72
2018-02-12T02:28:13.065Z,3.85
2018-02-12T02:30:40.756Z,5.55
2018-02-12T02:33:07.669Z,3.50
2018-02-12T02:35:35.355Z,4.40
2018-02-12T02:38:02.280Z,4.40
2018-02-12T02:40:29.210Z,2.95
2018-02-12T02:42:56.151Z,5.35
2018-02-12T02:45:23.062Z,4.22
2018-02-12T02:47:49.983Z,3.33
2018-02-12T02:50:16.903Z,3.60
2018-02-12T02:52:44.582Z,3.20
2018-02-12T02:55:11.520Z,3.47
2018-02-12T02:57:38.452Z,3.15
2018-02-12T03:00:06.129Z,3.80
2018-02-12T03:02:33.044Z,3.45
2018-02-12T03:05:00.227Z,4.60
2018-02-12T03:07:27.165Z,3.97
2018-02-12T03:09:54.096Z,4.40
2018-02-12T03:12:21.778Z,3.55
2018-02-12T03:14:48.691Z,3.67
2018-02-12T03:17:16.397Z,3.58
2018-02-12T03:19:43.313Z,4.35
2018-02-12T03:22:10.977Z,3.85
2018-02-12T03:24:38.653Z,2.95
2018-02-12T03:27:05.565Z,3.15
2018-02-12T03:29:32.482Z,3.08
2018-02-12T03:31:59.387Z,3.00
2018-02-12T03:34:26.348Z,2.62
2018-02-12T03:36:53.251Z,4.95
2018-02-12T03:39:20.171Z,3.95
2018-02-12T03:41:47.084Z,3.60
2018-02-12T03:44:14.027Z,3.37
2018-02-12T03:46:40.970Z,3.78
2018-02-12T03:49:07.891Z,4.70
2018-02-12T03:51:34.795Z,2.65
2018-02-12T03:54:01.711Z,2.85
2018-02-12T03:56:28.618Z,3.15
2018-02-12T03:58:55.548Z,2.97
2018-02-12T04:01:23.221Z,2.25
2018-02-12T04:03:50.912Z,2.95
2018-02-12T04:06:17.821Z,2.42
2018-02-12T04:08:44.753Z,2.28
2018-02-12T04:11:11.704Z,2.78
2018-02-12T04:13:39.407Z,2.80
2018-02-12T04:16:06.313Z,2.75
2018-02-12T04:18:34.006Z,2.75
2018-02-12T04:21:00.916Z,3.15
2018-02-12T04:23:27.847Z,2.65
2018-02-12T04:25:54.762Z,2.90
2018-02-12T04:28:21.670Z,2.62
2018-02-12T04:30:48.686Z,3.10
2018-02-12T04:33:15.608Z,3.08
2018-02-12T04:35:42.556Z,2.37
2018-02-12T04:38:09.500Z,2.95
2018-02-12T04:40:36.417Z,2.85
2018-02-12T04:43:03.388Z,3.28
2018-02-12T04:45:30.295Z,3.33
2018-02-12T04:47:57.207Z,2.65
2018-02-12T04:50:24.896Z,3.50
2018-02-12T04:52:51.787Z,3.47
2018-02-12T04:55:18.695Z,3.10
2018-02-12T04:57:45.600Z,2.85
2018-02-12T05:00:13.289Z,3.08
2018-02-12T05:02:40.195Z,3.15
2018-02-12T05:05:07.883Z,3.67
2018-02-12T05:07:34.786Z,3.90
2018-02-12T05:10:01.872Z,3.42
2018-02-12T05:12:28.812Z,3.33
2018-02-12T05:14:56.509Z,3.37
2018-02-12T05:17:23.419Z,3.90
2018-02-12T05:19:51.108Z,3.83
2018-02-12T05:22:18.009Z,3.30
2018-02-12T05:24:45.691Z,2.03
2018-02-12T05:27:12.607Z,3.08
2018-02-12T05:29:39.519Z,3.08
2018-02-12T05:32:06.420Z,3.55
2018-02-12T05:34:34.131Z,3.90
2018-02-12T05:37:01.095Z,3.03
2018-02-12T05:39:28.020Z,2.10
2018-02-12T05:41:54.943Z,4.50
2018-02-12T05:44:21.879Z,3.05
2018-02-12T05:46:48.779Z,3.53
2018-02-12T05:49:16.440Z,1.30
2018-02-12T05:51:44.129Z,3.15
2018-02-12T05:54:11.044Z,2.53
2018-02-12T05:56:37.968Z,2.67
2018-02-12T05:59:04.887Z,3.25
2018-02-12T06:01:31.808Z,3.03
2018-02-12T06:03:58.720Z,2.45
2018-02-12T06:06:25.715Z,2.72
2018-02-12T06:08:52.616Z,2.90
2018-02-12T06:11:20.313Z,2.70
2018-02-12T06:13:47.240Z,2.72
2018-02-12T06:16:14.928Z,3.40
2018-02-12T06:18:41.832Z,3.03
2018-02-12T06:21:08.793Z,3.33
2018-02-12T06:23:35.770Z,3.30
2018-02-12T06:26:02.688Z,3.00
2018-02-12T06:28:29.600Z,2.75
2018-02-12T06:30:56.561Z,2.87
2018-02-12T06:33:23.468Z,4.47
2018-02-12T06:35:50.388Z,2.60
2018-02-12T06:38:17.304Z,2.83
2018-02-12T06:40:44.228Z,3.40
2018-02-12T06:43:11.128Z,2.90
2018-02-12T06:45:38.057Z,2.75
2018-02-12T06:48:04.964Z,2.05
2018-02-12T06:50:31.886Z,2.83
2018-02-12T06:52:58.796Z,2.60
2018-02-12T06:55:25.717Z,2.58
2018-02-12T06:57:52.628Z,1.83
2018-02-12T07:00:19.552Z,2.22
2018-02-12T07:02:46.461Z,2.47
2018-02-12T07:05:14.224Z,2.50
2018-02-12T07:07:41.149Z,1.98
2018-02-12T07:10:08.908Z,2.85
2018-02-12T07:12:36.636Z,1.80
2018-02-12T07:15:03.628Z,2.60
2018-02-12T07:17:31.289Z,2.53
2018-02-12T07:19:58.972Z,2.65
2018-02-12T07:22:25.878Z,1.77
2018-02-12T07:24:53.576Z,2.75
2018-02-12T07:27:20.539Z,2.33
2018-02-12T07:29:47.430Z,2.60
2018-02-12T07:32:15.102Z,2.40
2018-02-12T07:34:42.783Z,0.90
2018-02-12T07:37:09.688Z,1.83
2018-02-12T07:39:36.624Z,2.35
2018-02-12T07:42:04.297Z,1.45
2018-02-12T07:44:31.207Z,2.08
2018-02-12T07:46:58.134Z,1.70
2018-02-12T07:49:25.047Z,2.03
2018-02-12T07:51:51.972Z,1.30
2018-02-12T07:54:18.872Z,0.80
2018-02-12T07:56:45.813Z,0.80
2018-02-12T07:59:12.715Z,0.55
2018-02-12T08:01:40.399Z,0.50
2018-02-12T08:04:07.308Z,1.17
2018-02-12T08:06:34.236Z,0.52
2018-02-12T08:09:01.136Z,1.10
2018-02-12T08:11:28.063Z,0.75
2018-02-12T08:13:54.965Z,0.98
2018-02-12T08:16:21.899Z,1.42
2018-02-12T08:18:48.808Z,0.90
2018-02-12T08:21:15.802Z,1.05
2018-02-12T08:23:42.740Z,1.27
2018-02-12T08:26:09.668Z,0.85
2018-02-12T08:28:36.580Z,1.55
2018-02-12T08:31:03.504Z,1.00
2018-02-12T08:33:31.178Z,0.70
2018-02-12T08:35:58.101Z,0.68
2018-02-12T08:38:25.000Z,0.75
2018-02-12T08:40:51.920Z,0.85
2018-02-12T08:43:19.592Z,0.57
2018-02-12T08:45:46.516Z,0.65
2018-02-12T08:48:13.423Z,0.65
2018-02-12T08:50:40.340Z,0.65
2018-02-12T08:53:07.269Z,0.32
2018-02-12T08:55:34.940Z,0.60
2018-02-12T08:58:01.861Z,0.70
2018-02-12T09:00:29.576Z,1.52
2018-02-12T09:02:56.486Z,0.82
2018-02-12T09:05:23.397Z,0.90
2018-02-12T09:07:50.312Z,0.40
2018-02-12T09:10:17.216Z,1.70
2018-02-12T09:12:44.163Z,0.90
2018-02-12T09:15:11.070Z,1.42
2018-02-12T09:17:38.433Z,1.02
2018-02-12T09:20:05.332Z,1.45
2018-02-12T09:22:32.321Z,0.98
2018-02-12T09:24:59.205Z,1.05
2018-02-12T09:27:26.136Z,1.20
2018-02-12T09:29:53.046Z,1.02
2018-02-12T09:32:19.975Z,0.90
2018-02-12T09:34:46.885Z,1.20
2018-02-12T09:37:13.804Z,0.75
2018-02-12T09:39:41.472Z,0.88
2018-02-12T09:42:08.387Z,1.48
2018-02-12T09:44:35.292Z,0.50
2018-02-12T09:47:02.215Z,0.82
2018-02-12T09:49:29.124Z,0.52
2018-02-12T09:51:56.043Z,0.70
2018-02-12T09:54:22.946Z,0.98
2018-02-12T09:56:49.877Z,1.15
2018-02-12T09:59:16.797Z,1.27
2018-02-12T10:01:43.720Z,1.20
2018-02-12T10:04:10.624Z,1.42
2018-02-12T10:06:37.552Z,1.70
2018-02-12T10:09:04.481Z,0.80
2018-02-12T10:11:32.227Z,1.37
2018-02-12T10:13:59.140Z,1.20
2018-02-12T10:16:26.075Z,1.10
2018-02-12T10:18:52.979Z,1.10
2018-02-12T10:21:20.668Z,0.85
2018-02-12T10:23:47.577Z,0.70
2018-02-12T10:26:14.559Z,1.08
2018-02-12T10:28:41.476Z,0.90
2018-02-12T10:31:08.424Z,0.68
2018-02-12T10:33:36.124Z,0.80
2018-02-12T10:36:03.024Z,0.85
2018-02-12T10:38:30.722Z,0.98
2018-02-12T10:40:57.640Z,0.95
2018-02-12T10:43:25.325Z,1.90
2018-02-12T10:45:52.245Z,2.20
2018-02-12T10:48:19.931Z,2.67
2018-02-12T10:50:46.850Z,2.28
2018-02-12T10:53:14.544Z,1.95
2018-02-12T10:55:41.448Z,3.47
2018-02-12T10:58:08.378Z,2.50
2018-02-12T11:00:35.347Z,3.40
2018-02-12T11:03:03.056Z,3.00
2018-02-12T11:05:29.963Z,2.10
2018-02-12T11:07:57.639Z,1.62
2018-02-12T11:10:24.552Z,3.37
2018-02-12T11:12:51.496Z,2.03
2018-02-12T11:15:18.434Z,2.35
2018-02-12T11:17:46.718Z,1.83
2018-02-12T11:20:14.439Z,2.12
2018-02-12T11:22:41.378Z,2.60
2018-02-12T11:25:09.058Z,2.92
2018-02-12T11:27:36.735Z,3.10
2018-02-12T11:30:03.638Z,2.65
2018-02-12T11:32:30.548Z,3.35
2018-02-12T11:34:57.475Z,3.58
2018-02-12T11:37:24.400Z,3.55
2018-02-12T11:39:51.316Z,3.78
2018-02-12T11:42:18.240Z,2.87
2018-02-12T11:44:45.143Z,3.17
2018-02-12T11:47:12.075Z,4.55
2018-02-12T11:49:38.977Z,3.75
2018-02-12T11:52:05.907Z,3.25
2018-02-12T11:54:32.816Z,3.05
2018-02-12T11:56:59.743Z,3.50
2018-02-12T11:59:26.647Z,3.75
2018-02-12T12:01:53.576Z,3.53
2018-02-12T12:04:21.248Z,3.03
2018-02-12T12:06:48.181Z,3.05
2018-02-12T12:09:15.856Z,5.07
2018-02-12T12:11:42.772Z,3.55
2018-02-12T12:14:09.696Z,3.85
2018-02-12T12:16:36.604Z,2.85
2018-02-12T12:19:03.513Z,2.62
2018-02-12T12:21:30.445Z,3.17
2018-02-12T12:23:57.363Z,3.12
2018-02-12T12:26:24.293Z,3.50
2018-02-12T12:28:51.225Z,3.12
2018-02-12T12:31:18.135Z,3.80
2018-02-12T12:33:45.052Z,3.05
2018-02-12T12:36:11.956Z,4.00
2018-02-12T12:38:38.851Z,2.87
2018-02-12T12:41:05.772Z,3.20
2018-02-12T12:43:32.690Z,3.17
2018-02-12T12:45:59.627Z,3.03
2018-02-12T12:48:26.550Z,2.85
2018-02-12T12:50:54.227Z,3.33
2018-02-12T12:53:21.144Z,1.87
2018-02-12T12:55:48.053Z,2.17
2018-02-12T12:58:14.992Z,2.05
2018-02-12T13:00:41.903Z,3.28
2018-02-12T13:03:08.839Z,2.25
2018-02-12T13:05:36.514Z,2.53
2018-02-12T13:08:03.445Z,2.60
2018-02-12T13:10:30.364Z,2.10
2018-02-12T13:12:57.293Z,3.78
2018-02-12T13:15:24.228Z,1.87
2018-02-12T13:17:51.159Z,3.75
2018-02-12T13:20:18.085Z,2.67
2018-02-12T13:22:45.016Z,2.42
2018-02-12T13:25:11.931Z,3.80
2018-02-12T13:27:38.856Z,2.40
2018-02-12T13:30:05.769Z,2.10
2018-02-12T13:32:32.701Z,3.87
2018-02-12T13:34:59.608Z,2.20
2018-02-12T13:37:26.547Z,2.22
2018-02-12T13:39:53.456Z,1.77
2018-02-12T13:42:20.383Z,2.58
2018-02-12T13:44:47.294Z,1.67
2018-02-12T13:47:14.208Z,1.70
2018-02-12T13:49:41.117Z,2.90
2018-02-12T13:52:08.040Z,2.05
2018-02-12T13:54:34.949Z,1.60
2018-02-12T13:57:01.868Z,1.77
2018-02-12T13:59:28.776Z,2.00
2018-02-12T14:01:55.710Z,1.83
2018-02-12T14:04:22.617Z,2.20
2018-02-12T14:06:49.548Z,1.95
2018-02-12T14:09:16.459Z,2.47
2018-02-12T14:11:44.145Z,1.80
2018-02-12T14:14:11.063Z,1.98
2018-02-12T14:16:38.764Z,1.70
2018-02-12T14:19:05.697Z,1.75
2018-02-12T14:21:32.620Z,1.55
2018-02-12T14:24:00.292Z,1.80
2018-02-12T14:26:27.213Z,1.60
2018-02-12T14:28:54.149Z,1.70
2018-02-12T14:31:21.075Z,1.00
2018-02-12T14:33:47.970Z,1.08
2018-02-12T14:36:14.895Z,1.55
2018-02-12T14:38:42.559Z,1.42
2018-02-12T14:41:10.243Z,1.98
2018-02-12T14:43:37.196Z,1.52
2018-02-12T14:46:04.135Z,1.67
2018-02-12T14:48:31.076Z,1.77
2018-02-12T14:50:57.991Z,1.23
2018-02-12T14:53:24.916Z,1.05
2018-02-12T14:55:51.821Z,1.65
2018-02-12T14:58:18.765Z,1.15
2018-02-12T15:00:45.672Z,1.35
2018-02-12T15:03:13.359Z,1.25
2018-02-12T15:05:40.263Z,1.23
2018-02-12T15:08:07.180Z,1.85
2018-02-12T15:10:34.117Z,1.20
2018-02-12T15:13:01.040Z,0.98
2018-02-12T15:15:27.952Z,2.00
2018-02-12T15:17:55.645Z,1.00
2018-02-12T15:20:22.566Z,2.25
2018-02-12T15:22:50.251Z,3.17
2018-02-12T15:25:17.159Z,2.03
2018-02-12T15:27:44.843Z,1.85
2018-02-12T15:30:11.755Z,2.15
2018-02-12T15:32:38.681Z,1.70
2018-02-12T15:35:05.599Z,1.50
2018-02-12T15:37:32.525Z,1.80
2018-02-12T15:40:00.224Z,1.77
2018-02-12T15:42:27.127Z,1.35
2018-02-12T15:44:54.040Z,2.25
2018-02-12T15:47:20.956Z,2.03
2018-02-12T15:49:47.886Z,2.95
2018-02-12T15:52:14.828Z,2.37
2018-02-12T15:54:41.735Z,2.50
2018-02-12T15:57:09.449Z,2.83
2018-02-12T15:59:36.361Z,2.00
2018-02-12T16:02:03.262Z,1.95
2018-02-12T16:04:31.691Z,2.50
2018-02-12T16:06:58.617Z,2.83
2018-02-12T16:09:25.727Z,2.40
2018-02-12T16:11:53.553Z,2.03
2018-02-12T16:14:20.465Z,2.03
2018-02-12T16:16:48.144Z,2.20
2018-02-12T16:19:15.056Z,2.90
2018-02-12T16:21:41.975Z,3.15
2018-02-12T16:24:08.876Z,2.75
2018-02-12T16:26:35.778Z,2.95
2018-02-12T16:29:02.718Z,2.70
2018-02-12T16:31:29.655Z,3.10
2018-02-12T16:33:56.581Z,2.75
2018-02-12T16:36:23.500Z,3.50
2018-02-12T16:38:51.175Z,1.87
2018-02-12T16:41:18.086Z,4.37
2018-02-12T16:43:45.005Z,3.17
2018-02-12T16:46:11.914Z,3.83
2018-02-12T16:48:38.909Z,2.90
2018-02-12T16:51:06.634Z,3.22
2018-02-12T16:53:33.563Z,2.28
2018-02-12T16:56:00.473Z,1.75
2018-02-12T16:58:28.147Z,3.10
2018-02-12T17:00:55.823Z,2.67
2018-02-12T17:03:22.742Z,2.60
2018-02-12T17:05:50.463Z,3.00
2018-02-12T17:08:17.380Z,4.90
2018-02-12T17:10:44.299Z,2.90
2018-02-12T17:13:11.245Z,3.58
2018-02-12T17:15:38.932Z,3.08
2018-02-12T17:18:05.923Z,3.42
2018-02-12T17:20:32.844Z,3.08
2018-02-12T17:22:59.930Z,2.25
2018-02-12T17:25:27.627Z,3.15
2018-02-12T17:27:54.572Z,3.33
2018-02-12T17:30:21.478Z,1.92
2018-02-12T17:32:48.477Z,3.60
2018-02-12T17:35:15.456Z,3.55
2018-02-12T17:37:42.417Z,3.20
2018-02-12T17:40:09.335Z,3.22
2018-02-12T17:42:36.288Z,3.87
2018-02-12T17:45:03.263Z,3.53
2018-02-12T17:47:31.150Z,3.12
2018-02-12T17:49:58.096Z,2.95
2018-02-12T17:52:29.427Z,4.30
2018-02-12T17:54:56.361Z,3.05
2018-02-12T17:57:23.316Z,3.67
2018-02-12T17:59:52.954Z,3.33
2018-02-12T18:02:19.888Z,2.70
2018-02-12T18:04:46.840Z,3.05
2018-02-12T18:07:13.846Z,3.75
2018-02-12T18:09:40.853Z,4.28
2018-02-12T18:12:08.568Z,3.45
2018-02-12T18:14:35.521Z,2.90
2018-02-12T18:17:02.469Z,3.35
2018-02-12T18:19:29.391Z,2.72
2018-02-12T18:21:56.341Z,3.97
2018-02-12T18:24:23.287Z,3.80
2018-02-12T18:26:50.272Z,3.33
2018-02-12T18:29:17.993Z,4.28
2018-02-12T18:31:45.024Z,3.65
2018-02-12T18:34:11.977Z,3.80
2018-02-12T18:36:38.925Z,3.80
2018-02-12T18:39:05.845Z,4.57
2018-02-12T18:41:34.892Z,4.80
2018-02-12T18:44:01.866Z,4.62
2018-02-12T18:46:28.952Z,4.32
2018-02-12T18:48:55.917Z,4.18
2018-02-12T18:51:22.873Z,5.30
2018-02-12T18:53:49.840Z,3.75
2018-02-12T18:56:16.822Z,3.33
2018-02-12T18:58:43.783Z,3.80
2018-02-12T19:01:10.748Z,4.55
2018-02-12T19:03:38.410Z,4.12
2018-02-12T19:06:05.411Z,3.60
2018-02-12T19:08:32.353Z,3.62
2018-02-12T19:10:59.318Z,4.18
2018-02-12T19:13:26.238Z,4.30
2018-02-12T19:15:53.169Z,3.60
2018-02-12T19:18:20.081Z,4.43
2018-02-12T19:20:47.009Z,3.83
2018-02-12T19:23:13.921Z,4.28
2018-02-12T19:25:40.852Z,4.70
2018-02-12T19:28:07.808Z,3.15
2018-02-12T19:30:34.785Z,5.93
2018-02-12T19:33:01.692Z,3.58
2018-02-12T19:35:28.632Z,4.40
2018-02-12T19:37:55.589Z,4.00
2018-02-12T19:40:22.537Z,3.53
2018-02-12T19:42:49.449Z,3.10
2018-02-12T19:45:17.158Z,3.00
2018-02-12T19:47:44.083Z,3.33
2018-02-12T19:50:11.944Z,2.80
2018-02-12T19:52:38.860Z,2.70
2018-02-12T19:55:06.595Z,2.35
2018-02-12T19:57:34.442Z,2.42
2018-02-12T20:00:01.388Z,2.30
2018-02-12T20:02:29.369Z,2.17
2018-02-12T20:04:56.318Z,2.50
2018-02-12T20:07:23.268Z,1.80
2018-02-12T20:09:50.173Z,3.12
2018-02-12T20:12:17.127Z,2.08
2018-02-12T20:14:44.036Z,3.15
2018-02-12T20:17:11.736Z,1.77
2018-02-12T20:19:38.684Z,1.70
2018-02-12T20:22:05.596Z,2.08
2018-02-12T20:24:32.536Z,2.25
2018-02-12T20:26:59.456Z,1.80
2018-02-12T20:29:26.420Z,1.70
2018-02-12T20:31:53.339Z,2.10
2018-02-12T20:34:20.285Z,2.70
2018-02-12T20:36:49.404Z,2.10
2018-02-12T20:39:16.206Z,1.58
2018-02-12T20:41:44.056Z,2.25
2018-02-12T20:44:10.985Z,2.50
2018-02-12T20:46:37.913Z,3.80
2018-02-12T20:49:04.848Z,2.00
2018-02-12T20:51:31.772Z,3.00
2018-02-12T20:53:58.699Z,3.00
2018-02-12T20:56:25.621Z,2.20
2018-02-12T20:58:52.554Z,2.55
2018-02-12T21:01:19.464Z,2.65
2018-02-12T21:03:47.185Z,3.15
2018-02-12T21:06:16.013Z,2.60
2018-02-12T21:08:42.970Z,3.35
2018-02-12T21:11:14.221Z,3.05
2018-02-12T21:13:41.167Z,4.07
2018-02-12T21:16:08.087Z,3.30
2018-02-12T21:18:35.798Z,2.95
2018-02-12T21:21:02.749Z,3.50
2018-02-12T21:23:30.688Z,3.28
2018-02-12T21:25:59.569Z,4.57
2018-02-12T21:28:26.513Z,3.75
2018-02-12T21:30:53.449Z,3.75
2018-02-12T21:33:21.157Z,3.67
2018-02-12T21:35:48.073Z,3.90
2018-02-12T21:38:15.000Z,3.90
2018-02-12T21:40:42.671Z,4.97
2018-02-12T21:43:09.660Z,5.65
2018-02-12T21:45:36.554Z,3.75
2018-02-12T21:48:03.461Z,3.87
2018-02-12T21:50:30.356Z,4.12
2018-02-12T21:52:57.293Z,4.43
2018-02-12T21:55:24.213Z,4.75
2018-02-12T21:57:51.147Z,3.58
2018-02-12T22:00:18.053Z,4.70
2018-02-12T22:02:46.919Z,4.53
2018-02-12T22:05:14.768Z,3.03
2018-02-12T22:07:42.459Z,5.10
2018-02-12T22:10:09.364Z,4.62
2018-02-12T22:12:37.060Z,4.07
2018-02-12T22:15:04.922Z,6.45
2018-02-12T22:17:31.851Z,3.78
2018-02-12T22:19:59.527Z,4.45
2018-02-12T22:22:26.456Z,4.75
2018-02-12T22:24:54.128Z,4.22
2018-02-12T22:27:21.816Z,4.68
2018-02-12T22:29:48.745Z,4.70
2018-02-12T22:32:15.668Z,4.62
2018-02-12T22:34:44.354Z,5.50
2018-02-12T22:37:18.033Z,5.05
2018-02-12T22:39:44.936Z,5.75
2018-02-12T22:42:11.866Z,5.07
2018-02-12T22:44:38.772Z,5.75
2018-02-12T22:47:06.681Z,4.75
2018-02-12T22:49:33.600Z,6.78
2018-02-12T22:52:01.283Z,5.37
2018-02-12T22:54:29.144Z,5.70
2018-02-12T22:56:56.056Z,5.10
2018-02-12T22:59:23.780Z,5.90
2018-02-12T23:01:50.685Z,6.28
2018-02-12T23:04:17.604Z,5.00
2018-02-12T23:06:45.332Z,6.97
2018-02-12T23:09:13.053Z,6.78
2018-02-12T23:11:39.983Z,5.22
2018-02-12T23:14:06.901Z,6.15
2018-02-12T23:16:33.809Z,5.82
2018-02-12T23:19:00.736Z,6.00
2018-02-12T23:21:27.651Z,6.35
2018-02-12T23:23:55.340Z,7.35
2018-02-12T23:26:22.255Z,5.55
2018-02-12T23:28:49.940Z,6.35
2018-02-12T23:31:16.851Z,7.37
2018-02-12T23:33:44.188Z,7.47
2018-02-12T23:36:11.093Z,9.25
2018-02-12T23:38:38.012Z,8.25
2018-02-12T23:41:05.700Z,7.28
2018-02-12T23:43:32.638Z,7.28
2018-02-12T23:45:59.553Z,8.38
2018-02-12T23:48:27.240Z,8.50
2018-02-12T23:50:54.152Z,8.48
2018-02-12T23:53:21.077Z,8.05
2018-02-12T23:55:48.007Z,8.50
2018-02-12T23:58:14.931Z,8.75
